sim
Sign-in with your pilot id or email,
or register
Callsign
Passwort

Schedule Details

Flight Number: RYR3525 (1)
Departure: London Luton Airport (EGGW) at 07:05
Arrival: Fuerteventura Airport (GCFV) at 11:25
Route: Ryanair Passenger Schedule. Enter filed route here before submitting Pirep.

Weather Information
Getting current METAR information for EGGW 211550Z AUTO 21007KT 9999 NCD 14/08 Q1026
Getting current METAR information for GCFV 211600Z 06005KT 030V110 CAVOK 20/14 Q1020

Schedule Frequency

Route Map